createdAt,value
2023-05-18T00:00:44.984Z,99829.41
2023-05-18T00:01:49.037Z,99819.72
2023-05-18T00:02:52.910Z,99818.66
2023-05-18T00:03:57.471Z,99826.50
2023-05-18T00:05:02.400Z,99831.94
2023-05-18T00:06:07.955Z,99830.53
2023-05-18T00:07:11.796Z,99823.13
2023-05-18T00:08:16.221Z,99824.81
2023-05-18T00:09:20.692Z,99825.66
2023-05-18T00:10:24.398Z,99832.16
2023-05-18T00:11:28.124Z,99828.53
2023-05-18T00:12:32.010Z,99833.75
2023-05-18T00:13:35.784Z,99831.94
2023-05-18T01:37:10.464Z,99842.28
2023-05-18T01:38:23.986Z,99842.78
2023-05-18T01:39:30.931Z,99841.53
2023-05-18T01:41:03.864Z,99837.94
2023-05-18T01:42:24.411Z,99846.84
2023-05-18T01:43:47.383Z,99846.22
2023-05-18T01:45:04.493Z,99853.88
2023-05-18T01:46:43.900Z,99838.78
2023-05-18T01:47:56.607Z,99846.09
2023-05-18T01:49:14.714Z,99855.22
2023-05-18T01:50:29.781Z,99856.00
2023-05-18T01:51:41.955Z,99851.13
2023-05-18T01:53:29.106Z,99852.88
2023-05-18T01:54:39.263Z,99851.34
2023-05-18T01:55:50.523Z,99853.63
2023-05-18T01:56:58.322Z,99849.25
2023-05-18T01:58:06.718Z,99852.75
2023-05-18T01:59:13.248Z,99855.31
2023-05-18T02:00:19.465Z,99858.66
2023-05-18T02:01:25.733Z,99854.94
2023-05-18T02:02:30.034Z,99854.69
2023-05-18T02:03:34.917Z,99858.25
2023-05-18T02:04:41.781Z,99861.59
2023-05-18T02:05:46.467Z,99849.91
2023-05-18T02:06:55.110Z,99853.91
2023-05-18T02:07:59.603Z,99855.59
2023-05-18T02:09:07.504Z,99856.38
2023-05-18T02:10:12.804Z,99861.69
2023-05-18T02:11:17.748Z,99861.88
2023-05-18T02:12:22.868Z,99864.44
2023-05-18T02:13:28.448Z,99849.53
2023-05-18T02:14:33.923Z,99864.91
2023-05-18T02:15:39.102Z,99860.56
2023-05-18T02:16:47.635Z,99861.41
2023-05-18T02:17:52.250Z,99855.44
2023-05-18T02:18:56.986Z,99855.72
2023-05-18T02:20:01.634Z,99864.75
2023-05-18T02:21:06.246Z,99860.94
2023-05-18T02:22:10.977Z,99861.59
2023-05-18T02:23:16.124Z,99856.28
2023-05-18T02:24:21.354Z,99859.91
2023-05-18T02:25:26.438Z,99866.16
2023-05-18T02:26:30.334Z,99858.28
2023-05-18T02:27:36.313Z,99860.94
2023-05-18T02:28:41.472Z,99859.81
2023-05-18T02:29:46.782Z,99863.31
2023-05-18T02:30:51.714Z,99861.41
2023-05-18T02:31:56.167Z,99864.84
2023-05-18T02:33:00.140Z,99863.22
2023-05-18T02:34:09.134Z,99861.72
2023-05-18T02:35:14.215Z,99868.72
2023-05-18T02:36:19.331Z,99869.00
2023-05-18T02:37:32.079Z,99864.00
2023-05-18T02:38:39.921Z,99871.66
2023-05-18T02:39:49.126Z,99862.84
2023-05-18T02:40:54.018Z,99870.81
2023-05-18T02:41:58.785Z,99870.91
2023-05-18T02:43:03.041Z,99865.50
2023-05-18T02:44:11.192Z,99870.63
2023-05-18T02:45:15.560Z,99870.91
2023-05-18T02:46:24.133Z,99871.13
2023-05-18T02:47:30.225Z,99874.91
2023-05-18T02:48:34.788Z,99874.78
2023-05-18T02:49:38.749Z,99864.16
2023-05-18T02:50:44.920Z,99871.13
2023-05-18T02:51:49.257Z,99873.66
2023-05-18T02:52:56.147Z,99876.44
2023-05-18T02:54:04.722Z,99871.19
2023-05-18T02:55:13.411Z,99881.91
2023-05-18T02:56:18.973Z,99884.69
2023-05-18T02:57:23.700Z,99879.16
2023-05-18T02:58:28.819Z,99881.06
2023-05-18T02:59:34.050Z,99884.78
2023-05-18T03:00:41.815Z,99882.19
2023-05-18T03:01:46.148Z,99882.13
2023-05-18T03:02:50.859Z,99885.72
2023-05-18T03:03:59.516Z,99883.72
2023-05-18T03:05:06.602Z,99884.69
2023-05-18T03:06:12.037Z,99887.34
2023-05-18T03:07:16.851Z,99890.94
2023-05-18T03:08:23.439Z,99889.50
2023-05-18T03:09:28.916Z,99887.69
2023-05-18T03:10:33.892Z,99892.16
2023-05-18T03:11:39.101Z,99889.41
2023-05-18T03:12:44.545Z,99887.81
2023-05-18T03:13:49.564Z,99893.13
2023-05-18T03:14:57.976Z,99891.13
2023-05-18T03:16:02.288Z,99903.53
2023-05-18T03:17:08.634Z,99893.03
2023-05-18T03:18:14.222Z,99904.41
2023-05-18T03:19:18.103Z,99899.09
2023-05-18T03:20:23.404Z,99893.78
2023-05-18T03:21:34.233Z,99904.41
2023-05-18T03:22:38.882Z,99900.13
2023-05-18T03:23:43.044Z,99899.28
2023-05-18T03:24:47.023Z,99905.91
2023-05-18T03:25:53.950Z,99907.41
2023-05-18T03:26:57.841Z,99906.50
2023-05-18T03:28:01.538Z,99904.59
2023-05-18T03:29:07.537Z,99907.91
2023-05-18T03:30:12.168Z,99907.91
2023-05-18T03:31:16.555Z,99907.91
2023-05-18T03:32:22.815Z,99907.84
2023-05-18T03:33:27.239Z,99907.25
2023-05-18T03:34:30.978Z,99907.16
2023-05-18T03:35:36.317Z,99914.19
2023-05-18T03:36:43.655Z,99909.16
2023-05-18T03:37:47.967Z,99915.13
2023-05-18T03:38:55.071Z,99916.06
2023-05-18T03:40:14.459Z,99916.94
2023-05-18T03:41:22.403Z,99915.97
2023-05-18T03:42:27.850Z,99919.50
2023-05-18T03:43:35.744Z,99928.50
2023-05-18T03:44:40.722Z,99929.38
2023-05-18T03:45:45.693Z,99928.63
2023-05-18T03:46:50.399Z,99926.41
2023-05-18T03:47:55.644Z,99931.25
2023-05-18T03:49:00.153Z,99943.19
2023-05-18T03:50:08.987Z,99938.97
2023-05-18T03:51:17.077Z,99942.78
2023-05-18T03:52:27.325Z,99937.63
2023-05-18T03:53:34.289Z,99955.63
2023-05-18T03:54:44.654Z,99981.44
2023-05-18T03:55:52.176Z,99960.47
2023-05-18T03:56:56.841Z,99968.69
2023-05-18T03:58:01.910Z,99965.28
2023-05-18T03:59:08.386Z,99960.13
2023-05-18T04:00:24.061Z,99963.72
2023-05-18T04:01:31.415Z,99967.44
2023-05-18T04:02:42.167Z,99963.72
2023-05-18T04:03:46.241Z,99982.31
2023-05-18T04:04:54.412Z,99972.91
2023-05-18T04:05:58.359Z,99970.25
2023-05-18T04:07:06.728Z,99972.66
2023-05-18T04:08:14.973Z,99983.94
2023-05-18T04:09:21.931Z,99978.81
2023-05-18T04:10:26.839Z,99985.81
2023-05-18T04:11:31.958Z,99987.72
2023-05-18T04:12:36.466Z,99974.53
2023-05-18T04:13:42.418Z,99986.53
2023-05-18T04:14:50.257Z,99986.53
2023-05-18T04:15:55.036Z,99985.72
2023-05-18T04:17:10.911Z,99989.94
2023-05-18T04:18:17.760Z,99995.25
2023-05-18T04:19:22.306Z,99987.38
2023-05-18T04:20:28.708Z,99983.78
2023-05-18T04:21:36.449Z,99992.00
2023-05-18T04:22:49.952Z,100006.41
2023-05-18T04:24:01.100Z,100005.88
2023-05-18T04:25:06.767Z,100001.53
2023-05-18T04:26:13.112Z,100001.44
2023-05-18T04:27:18.671Z,99997.91
2023-05-18T04:28:23.759Z,100001.59
2023-05-18T04:29:29.511Z,100002.44
2023-05-18T04:30:33.388Z,100002.44
2023-05-18T04:31:43.357Z,100000.72
2023-05-18T04:32:48.214Z,100002.53
2023-05-18T04:33:53.032Z,100009.31
2023-05-18T04:35:02.286Z,100006.75
2023-05-18T04:36:07.794Z,100013.25
2023-05-18T04:37:15.611Z,100006.22
2023-05-18T04:38:23.839Z,100009.53
2023-05-18T04:39:27.857Z,100007.69
2023-05-18T04:40:34.305Z,100008.34
2023-05-18T04:41:43.213Z,100009.50
2023-05-18T04:42:48.825Z,100011.19
2023-05-18T04:43:54.323Z,100008.63
2023-05-18T04:45:01.013Z,100006.13
2023-05-18T04:46:10.690Z,100011.19
2023-05-18T04:47:18.718Z,100018.22
2023-05-18T04:48:26.890Z,100011.19
2023-05-18T04:49:42.545Z,100009.41
2023-05-18T04:50:47.369Z,100014.63
2023-05-18T04:51:57.061Z,100020.78
2023-05-18T04:53:02.774Z,100015.97
2023-05-18T04:54:13.855Z,100019.38
2023-05-18T04:55:29.227Z,100019.38
2023-05-18T04:56:33.548Z,100013.41
2023-05-18T04:57:39.004Z,100023.19
2023-05-18T04:58:48.166Z,100024.88
2023-05-18T04:59:53.831Z,100022.13
2023-05-18T05:00:58.163Z,100024.53
2023-05-18T05:02:06.676Z,100019.13
2023-05-18T05:03:11.244Z,100018.03
2023-05-18T05:04:16.460Z,100015.38
2023-05-18T05:05:22.671Z,100015.28
2023-05-18T05:06:26.649Z,100009.97
2023-05-18T05:07:30.398Z,100018.78
2023-05-18T05:08:36.453Z,100019.47
2023-05-18T05:09:42.602Z,100024.00
2023-05-18T05:10:47.270Z,100024.88
2023-05-18T05:11:51.451Z,100022.81
2023-05-18T05:12:55.671Z,100019.97
2023-05-18T05:14:00.611Z,100039.41
2023-05-18T05:15:11.151Z,100035.91
2023-05-18T05:16:15.860Z,100034.28
2023-05-18T05:17:25.056Z,100040.53
2023-05-18T05:18:29.444Z,100038.75
2023-05-18T05:19:36.599Z,100042.41
2023-05-18T05:20:47.548Z,100039.19
2023-05-18T05:22:04.742Z,100045.25
2023-05-18T05:23:16.586Z,100046.72
2023-05-18T05:24:23.717Z,100046.00
2023-05-18T05:25:28.160Z,100039.59
2023-05-18T05:26:32.778Z,100049.19
2023-05-18T05:27:39.015Z,100051.06
2023-05-18T05:28:43.418Z,100051.75
2023-05-18T05:29:48.476Z,100045.66
2023-05-18T05:30:54.303Z,100057.16
2023-05-18T05:31:59.005Z,100058.78
2023-05-18T05:33:04.138Z,100053.28
2023-05-18T05:34:12.631Z,100051.69
2023-05-18T05:35:18.971Z,100049.38
2023-05-18T05:36:24.567Z,100050.56
2023-05-18T05:37:46.544Z,100055.78
2023-05-18T05:38:51.799Z,100063.09
2023-05-18T05:39:58.968Z,100061.38
2023-05-18T05:41:03.388Z,100060.53
2023-05-18T05:42:11.385Z,100065.03
2023-05-18T05:43:16.717Z,100065.88
2023-05-18T05:44:24.373Z,100072.16
2023-05-18T05:45:30.319Z,100063.75
2023-05-18T05:46:34.543Z,100065.91
2023-05-18T05:47:41.610Z,100069.75
2023-05-18T05:48:48.057Z,100061.13
2023-05-18T05:49:56.394Z,100066.50
2023-05-18T05:51:01.380Z,100072.16
2023-05-18T05:52:06.349Z,100064.97
2023-05-18T05:53:10.983Z,100072.91
2023-05-18T05:54:15.122Z,100073.09
2023-05-18T05:55:19.630Z,100074.03
2023-05-18T05:56:24.398Z,100073.09
2023-05-18T05:57:28.552Z,100081.22
2023-05-18T05:58:32.456Z,100078.72
2023-05-18T05:59:36.454Z,100085.84
2023-05-18T06:00:40.194Z,100078.97
2023-05-18T06:01:44.286Z,100082.47
2023-05-18T06:02:49.730Z,100086.25
2023-05-18T06:03:58.331Z,100087.97
2023-05-18T06:05:04.238Z,100085.31
2023-05-18T06:06:13.179Z,100084.75
2023-05-18T06:07:24.060Z,100089.88
2023-05-18T06:08:28.607Z,100087.03
2023-05-18T06:09:32.942Z,100088.59
2023-05-18T06:10:39.791Z,100094.66
2023-05-18T06:11:44.069Z,100099.97
2023-05-18T06:12:51.146Z,100092.69
2023-05-18T06:13:59.104Z,100089.97
2023-05-18T06:15:08.256Z,100100.41
2023-05-18T06:16:12.273Z,100091.50
2023-05-18T06:17:17.521Z,100086.03
2023-05-18T06:18:21.742Z,100083.19
2023-05-18T06:19:26.918Z,100087.56
2023-05-18T06:20:31.943Z,100089.88
2023-05-18T06:21:39.556Z,100087.03
2023-05-18T06:22:48.009Z,100084.06
2023-05-18T06:23:57.161Z,100090.31
2023-05-18T06:25:01.935Z,100093.41
2023-05-18T06:26:13.928Z,100090.59
2023-05-18T06:27:21.348Z,100093.31
2023-05-18T06:28:25.454Z,100093.06
2023-05-18T06:29:31.090Z,100098.47
2023-05-18T06:30:34.912Z,100101.03
2023-05-18T06:31:38.907Z,100095.63
2023-05-18T06:32:42.715Z,100094.75
2023-05-18T06:33:46.614Z,100098.88
2023-05-18T06:34:51.063Z,100099.63
2023-05-18T06:35:55.336Z,100105.03
2023-05-18T06:36:59.213Z,100102.47
2023-05-18T06:38:16.368Z,100101.78
2023-05-18T06:39:30.641Z,100100.41
2023-05-18T06:40:36.724Z,100103.34
2023-05-18T06:41:40.662Z,100104.00
2023-05-18T06:42:44.518Z,100103.16
2023-05-18T06:43:48.719Z,100106.75
2023-05-18T06:44:54.050Z,100115.59
2023-05-18T06:45:58.312Z,100109.41
2023-05-18T06:47:02.375Z,100106.25
2023-05-18T06:48:12.652Z,100114.81
2023-05-18T06:49:20.592Z,100110.19
2023-05-18T06:50:27.614Z,100105.72
2023-05-18T06:51:33.724Z,100116.19
2023-05-18T06:52:39.769Z,100118.66
2023-05-18T06:53:44.071Z,100122.34
2023-05-18T06:54:47.998Z,100119.84
2023-05-18T06:55:51.951Z,100122.59
2023-05-18T06:56:58.782Z,100121.84
2023-05-18T06:58:09.114Z,100124.50
2023-05-18T06:59:14.227Z,100121.66
2023-05-18T07:00:19.774Z,100117.19
2023-05-18T07:01:24.086Z,100125.25
2023-05-18T07:02:28.880Z,100123.22
2023-05-18T07:03:32.847Z,100124.91
2023-05-18T07:04:36.649Z,100127.34
2023-05-18T07:05:41.289Z,100126.47
2023-05-18T07:06:46.817Z,100129.03
2023-05-18T07:07:52.303Z,100128.00
2023-05-18T07:08:56.614Z,100127.84
2023-05-18T07:10:00.569Z,100133.16
2023-05-18T07:11:05.725Z,100132.56
2023-05-18T07:12:14.347Z,100129.03
2023-05-18T07:13:20.109Z,100127.06
2023-05-18T07:14:34.238Z,100130.50
2023-05-18T07:15:38.681Z,100136.72
2023-05-18T07:16:44.187Z,100138.47
2023-05-18T07:17:48.027Z,100137.53
2023-05-18T07:18:51.772Z,100134.69
2023-05-18T07:19:55.528Z,100134.69
2023-05-18T07:20:59.231Z,100139.06
2023-05-18T07:22:04.803Z,100133.75
2023-05-18T07:23:08.956Z,100137.94
2023-05-18T07:24:12.863Z,100135.44
2023-05-18T07:25:17.156Z,100136.06
2023-05-18T07:26:22.738Z,100138.63
2023-05-18T07:27:29.737Z,100136.81
2023-05-18T07:28:33.508Z,100147.38
2023-05-18T07:29:41.693Z,100141.88
2023-05-18T07:30:47.404Z,100137.25
2023-05-18T07:31:52.371Z,100139.97
2023-05-18T07:32:57.596Z,100144.19
2023-05-18T07:34:02.185Z,100146.25
2023-05-18T07:35:07.697Z,100138.47
2023-05-18T07:36:13.574Z,100138.47
2023-05-18T07:37:18.225Z,100137.50
2023-05-18T07:38:22.691Z,100140.06
2023-05-18T07:39:35.176Z,100139.13
2023-05-18T07:40:40.211Z,100138.13
2023-05-18T07:41:48.627Z,100138.28
2023-05-18T07:42:52.923Z,100141.69
2023-05-18T07:43:57.281Z,100146.00
2023-05-18T07:45:01.039Z,100140.59
2023-05-18T07:46:06.695Z,100144.19
2023-05-18T07:47:11.926Z,100136.31
2023-05-18T07:48:15.996Z,100140.16
2023-05-18T07:49:19.880Z,100141.69
2023-05-18T07:50:27.937Z,100144.19
2023-05-18T07:51:32.756Z,100141.44
2023-05-18T07:52:37.309Z,100150.03
2023-05-18T07:53:42.386Z,100145.28
2023-05-18T07:54:47.666Z,100139.97
2023-05-18T07:55:52.668Z,100143.66
2023-05-18T07:57:00.691Z,100153.34
2023-05-18T07:58:05.309Z,100146.06
2023-05-18T07:59:13.267Z,100153.19
2023-05-18T08:00:23.513Z,100144.94
2023-05-18T08:01:30.811Z,100151.03
2023-05-18T08:02:35.920Z,100156.16
2023-05-18T08:03:40.515Z,100150.09
2023-05-18T08:04:46.709Z,100156.50
2023-05-18T08:05:51.144Z,100155.66
2023-05-18T08:07:00.305Z,100152.31
2023-05-18T08:08:06.768Z,100148.63
2023-05-18T08:09:13.587Z,100147.59
2023-05-18T08:10:17.927Z,100151.94
2023-05-18T08:11:21.976Z,100154.59
2023-05-18T08:12:27.160Z,100153.59
2023-05-18T08:13:34.045Z,100153.84
2023-05-18T08:14:39.564Z,100150.59
2023-05-18T08:15:46.292Z,100153.34
2023-05-18T08:16:53.664Z,100157.66
2023-05-18T08:17:58.269Z,100150.59
2023-05-18T08:19:06.117Z,100152.94
2023-05-18T08:20:12.545Z,100158.94
2023-05-18T08:21:17.669Z,100158.84
2023-05-18T08:22:21.491Z,100155.25
2023-05-18T08:23:34.684Z,100163.31
2023-05-18T08:24:40.251Z,100159.69
2023-05-18T08:25:44.354Z,100159.50
2023-05-18T08:26:48.619Z,100160.56
2023-05-18T08:27:54.000Z,100157.66
2023-05-18T08:28:57.920Z,100160.03
2023-05-18T08:30:02.037Z,100159.44
2023-05-18T08:31:06.698Z,100163.97
2023-05-18T08:32:11.407Z,100158.50
2023-05-18T08:33:15.340Z,100160.03
2023-05-18T08:34:19.321Z,100164.31
2023-05-18T08:35:23.275Z,100166.97
2023-05-18T08:36:27.159Z,100163.53
2023-05-18T08:37:32.230Z,100163.53
2023-05-18T08:38:41.269Z,100166.03
2023-05-18T08:39:47.868Z,100169.63
2023-05-18T08:41:08.521Z,100165.19
2023-05-18T08:42:27.693Z,100170.31
2023-05-18T08:43:48.907Z,100168.69
2023-05-18T08:45:13.532Z,100169.78
2023-05-18T08:46:36.901Z,100168.28
2023-05-18T08:47:42.346Z,100175.13
2023-05-18T08:48:51.881Z,100166.88
2023-05-18T08:50:00.443Z,100165.00
2023-05-18T08:51:16.272Z,100168.25
2023-05-18T08:52:28.309Z,100173.22
2023-05-18T08:53:34.067Z,100175.59
2023-05-18T08:54:41.628Z,100172.38
2023-05-18T08:55:49.521Z,100177.50
2023-05-18T08:56:54.647Z,100177.50
2023-05-18T08:58:02.915Z,100172.16
2023-05-18T08:59:11.493Z,100170.47
2023-05-18T09:00:17.382Z,100170.47
2023-05-18T09:01:31.402Z,100178.25
2023-05-18T09:02:39.500Z,100168.41
2023-05-18T09:03:45.756Z,100172.53
2023-05-18T09:04:50.180Z,100171.31
2023-05-18T09:05:59.469Z,100163.75
2023-05-18T09:07:09.898Z,100171.47
2023-05-18T09:08:18.148Z,100168.72
2023-05-18T09:09:26.649Z,100167.66
2023-05-18T09:10:34.246Z,100169.56
2023-05-18T09:11:40.204Z,100169.75
2023-05-18T09:12:48.691Z,100163.84
2023-05-18T09:13:52.796Z,100162.88
2023-05-18T09:14:58.583Z,100169.06
2023-05-18T09:16:02.406Z,100165.66
2023-05-18T09:17:06.540Z,100162.88
2023-05-18T09:18:10.441Z,100167.34
2023-05-18T09:19:14.428Z,100164.09
2023-05-18T09:20:20.082Z,100161.72
2023-05-18T09:21:23.926Z,100162.59
2023-05-18T09:22:31.907Z,100161.13
2023-05-18T09:23:36.859Z,100164.13
2023-05-18T09:24:43.079Z,100162.44
2023-05-18T09:25:53.499Z,100164.22
2023-05-18T09:26:57.519Z,100159.84
2023-05-18T09:28:06.544Z,100160.03
2023-05-18T09:29:22.289Z,100156.94
2023-05-18T09:30:32.805Z,100160.81
2023-05-18T09:31:38.840Z,100165.25
2023-05-18T09:32:48.293Z,100162.19
2023-05-18T09:33:54.578Z,100157.72
2023-05-18T09:35:08.309Z,100157.81
2023-05-18T09:36:12.959Z,100158.06
2023-05-18T09:37:18.991Z,100155.59
2023-05-18T09:38:24.045Z,100154.03
2023-05-18T09:39:28.272Z,100158.50
2023-05-18T09:40:33.069Z,100156.63
2023-05-18T09:41:43.360Z,100161.84
2023-05-18T09:42:49.238Z,100156.69
2023-05-18T09:43:54.978Z,100163.03
2023-05-18T09:45:00.526Z,100158.44
2023-05-18T09:46:11.220Z,100159.28
2023-05-18T09:47:23.426Z,100165.53
2023-05-18T09:48:31.064Z,100166.31
2023-05-18T09:49:37.717Z,100160.06
2023-05-18T09:50:45.318Z,100153.03
2023-05-18T09:51:49.921Z,100153.78
2023-05-18T09:52:54.646Z,100151.66
2023-05-18T09:54:02.548Z,100158.53
2023-05-18T09:55:16.761Z,100153.19
2023-05-18T09:56:22.743Z,100152.31
2023-05-18T09:57:27.326Z,100157.56
2023-05-18T09:58:36.277Z,100154.91
2023-05-18T09:59:41.697Z,100160.03
2023-05-18T10:00:52.056Z,100162.59
2023-05-18T10:02:02.035Z,100166.81
2023-05-18T10:03:18.230Z,100159.59
2023-05-18T10:04:21.978Z,100155.91
2023-05-18T10:05:36.135Z,100157.66
2023-05-18T10:06:51.425Z,100155.75
2023-05-18T10:07:58.162Z,100155.75
2023-05-18T10:09:05.254Z,100154.03
2023-05-18T10:10:12.248Z,100149.56
2023-05-18T10:11:20.019Z,100156.78
2023-05-18T10:12:24.676Z,100149.56
2023-05-18T10:13:32.351Z,100156.41
2023-05-18T10:14:37.219Z,100151.19
2023-05-18T10:15:51.290Z,100158.06
2023-05-18T10:17:03.618Z,100148.44
2023-05-18T10:18:28.476Z,100158.06
2023-05-18T10:19:39.235Z,100156.06
2023-05-18T10:20:46.400Z,100151.25
2023-05-18T10:21:55.044Z,100152.50
2023-05-18T10:23:10.645Z,100152.06
2023-05-18T10:24:22.016Z,100150.75
2023-05-18T10:25:31.342Z,100150.41
2023-05-18T10:26:42.666Z,100155.63
2023-05-18T10:28:03.026Z,100148.44
2023-05-18T10:29:11.058Z,100149.88
2023-05-18T10:30:17.978Z,100145.44
2023-05-18T10:31:26.312Z,100147.91
2023-05-18T10:32:37.265Z,100154.09
2023-05-18T10:33:47.328Z,100151.31
2023-05-18T10:34:54.229Z,100152.38
2023-05-18T10:35:58.769Z,100154.19
2023-05-18T10:37:11.644Z,100149.38
2023-05-18T10:38:28.560Z,100151.94
2023-05-18T10:39:41.565Z,100163.88
2023-05-18T10:40:53.266Z,100167.50
2023-05-18T10:42:04.364Z,100156.66
2023-05-18T10:43:16.978Z,100158.38
2023-05-18T10:44:26.093Z,100152.22
2023-05-18T10:45:39.881Z,100155.31
2023-05-18T10:46:44.470Z,100156.53
2023-05-18T10:47:54.883Z,100166.16
2023-05-18T10:49:04.108Z,100155.50
2023-05-18T10:50:13.531Z,100158.16
2023-05-18T10:51:20.643Z,100167.09
2023-05-18T10:52:32.133Z,100160.50
2023-05-18T10:53:40.126Z,100158.53
2023-05-18T10:54:46.742Z,100158.63
2023-05-18T10:55:53.149Z,100159.06
2023-05-18T10:56:57.866Z,100163.59
2023-05-18T10:58:14.374Z,100164.13
2023-05-18T10:59:20.515Z,100163.47
2023-05-18T11:00:25.514Z,100160.81
2023-05-18T11:01:33.561Z,100166.19
2023-05-18T11:02:43.338Z,100164.66
2023-05-18T11:03:49.779Z,100167.31
2023-05-18T11:04:57.416Z,100165.53
2023-05-18T11:06:08.840Z,100167.03
2023-05-18T11:07:14.561Z,100163.03
2023-05-18T11:08:27.677Z,100166.53
2023-05-18T11:09:32.710Z,100161.22
2023-05-18T11:10:44.249Z,100161.22
2023-05-18T11:12:17.659Z,100161.22
2023-05-18T11:13:32.872Z,100170.13
2023-05-18T11:14:47.110Z,100167.66
2023-05-18T11:15:53.764Z,100164.25
2023-05-18T11:17:18.034Z,100171.38
2023-05-18T11:18:49.494Z,100168.97
2023-05-18T11:20:13.438Z,100174.03
2023-05-18T11:21:53.017Z,100172.38
2023-05-18T11:22:59.522Z,100175.78
2023-05-18T11:24:31.767Z,100165.34
2023-05-18T11:25:39.614Z,100167.16
2023-05-18T11:26:55.003Z,100168.72
2023-05-18T11:28:02.586Z,100166.81
2023-05-18T11:29:22.136Z,100171.84
2023-05-18T11:30:50.757Z,100173.00
2023-05-18T11:31:56.087Z,100173.06
2023-05-18T11:33:15.215Z,100170.13
2023-05-18T11:34:51.477Z,100166.91
2023-05-18T11:36:13.688Z,100171.38
2023-05-18T11:37:38.599Z,100169.63
2023-05-18T11:39:04.501Z,100174.03
2023-05-18T11:40:13.969Z,100175.78
2023-05-18T11:41:47.018Z,100171.19
2023-05-18T11:42:59.442Z,100171.84
2023-05-18T11:44:21.262Z,100173.94
2023-05-18T11:45:26.776Z,100174.78
2023-05-18T11:46:30.889Z,100177.09
2023-05-18T11:47:37.485Z,100173.66
2023-05-18T11:48:45.749Z,100174.34
2023-05-18T11:49:54.660Z,100171.69
2023-05-18T11:50:58.930Z,100180.63
2023-05-18T11:52:19.458Z,100178.53
2023-05-18T11:53:27.141Z,100177.44
2023-05-18T11:54:50.618Z,100175.47
2023-05-18T11:55:56.818Z,100179.72
2023-05-18T11:57:01.728Z,100176.13
2023-05-18T11:58:11.424Z,100181.94
2023-05-18T11:59:16.164Z,100183.00
2023-05-18T12:00:21.371Z,100180.06
2023-05-18T12:01:25.942Z,100186.06
2023-05-18T12:02:35.209Z,100195.56
2023-05-18T12:03:41.294Z,100185.63
2023-05-18T12:05:15.736Z,100188.84
2023-05-18T12:06:21.690Z,100186.97
2023-05-18T12:07:36.456Z,100192.38
2023-05-18T12:08:44.359Z,100192.38
2023-05-18T12:09:50.211Z,100194.84
2023-05-18T12:10:57.614Z,100191.34
2023-05-18T12:12:07.216Z,100195.63
2023-05-18T12:13:15.655Z,100199.13
2023-05-18T12:14:23.105Z,100194.75
2023-05-18T12:15:31.197Z,100194.09
2023-05-18T12:16:39.547Z,100194.66
2023-05-18T12:17:48.832Z,100192.69
2023-05-18T12:18:54.740Z,100198.00
2023-05-18T12:19:59.282Z,100193.34
2023-05-18T12:21:06.254Z,100200.25
2023-05-18T12:22:14.203Z,100200.06
2023-05-18T12:23:21.134Z,100194.69
2023-05-18T12:24:25.730Z,100191.13
2023-05-18T12:25:32.254Z,100202.91
2023-05-18T12:26:38.604Z,100192.19
2023-05-18T12:27:46.072Z,100193.88
2023-05-18T12:28:51.261Z,100192.88
2023-05-18T12:29:56.189Z,100198.00
2023-05-18T12:31:07.847Z,100194.28
2023-05-18T12:32:15.053Z,100196.28
2023-05-18T12:33:22.517Z,100198.84
2023-05-18T12:34:30.000Z,100201.41
2023-05-18T12:35:34.948Z,100200.56
2023-05-18T12:36:54.581Z,100198.75
2023-05-18T12:38:00.907Z,100201.25
2023-05-18T12:39:07.366Z,100195.94
2023-05-18T12:40:18.942Z,100195.94
2023-05-18T12:41:29.124Z,100202.75
2023-05-18T12:42:33.560Z,100201.16
2023-05-18T12:43:40.262Z,100198.59
2023-05-18T12:44:46.970Z,100198.59
2023-05-18T12:45:51.446Z,100198.41
2023-05-18T12:46:58.190Z,100203.91
2023-05-18T12:48:08.096Z,100196.78
2023-05-18T12:49:12.894Z,100197.63
2023-05-18T12:50:16.948Z,100195.94
2023-05-18T12:51:21.001Z,100190.78
2023-05-18T12:52:26.950Z,100196.28
2023-05-18T12:53:44.675Z,100187.53
2023-05-18T12:54:56.037Z,100191.22
2023-05-18T12:56:02.070Z,100183.44
2023-05-18T12:57:10.135Z,100194.84
2023-05-18T12:58:19.252Z,100187.81
2023-05-18T12:59:23.677Z,100183.25
2023-05-18T13:00:38.304Z,100179.63
2023-05-18T13:01:45.545Z,100184.28
2023-05-18T13:02:52.499Z,100182.38
2023-05-18T13:04:00.173Z,100186.69
2023-05-18T13:05:14.481Z,100177.66
2023-05-18T13:06:19.209Z,100184.69
2023-05-18T13:07:27.800Z,100185.53
2023-05-18T13:08:34.561Z,100184.09
2023-05-18T13:09:47.111Z,100185.66
2023-05-18T13:11:01.615Z,100184.59
2023-05-18T13:12:14.885Z,100176.72
2023-05-18T13:13:20.179Z,100183.75
2023-05-18T13:14:24.151Z,100177.47
2023-05-18T13:15:37.305Z,100175.84
2023-05-18T13:16:45.983Z,100179.28
2023-05-18T13:18:04.011Z,100183.38
2023-05-18T13:19:11.338Z,100179.75
2023-05-18T13:20:16.212Z,100184.50
2023-05-18T13:21:20.020Z,100174.63
2023-05-18T13:22:23.844Z,100181.31
2023-05-18T13:23:30.467Z,100176.94
2023-05-18T13:24:34.187Z,100184.81
2023-05-18T13:25:38.712Z,100180.34
2023-05-18T13:26:44.075Z,100182.31
2023-05-18T13:27:49.692Z,100178.91
2023-05-18T13:28:57.701Z,100178.91
2023-05-18T13:30:02.715Z,100173.44
2023-05-18T13:31:07.805Z,100174.44
2023-05-18T13:32:12.595Z,100184.34
2023-05-18T13:33:19.619Z,100183.28
2023-05-18T13:34:24.482Z,100177.84
2023-05-18T13:35:31.244Z,100182.53
2023-05-18T13:36:36.707Z,100173.59
2023-05-18T13:37:41.996Z,100176.16
2023-05-18T13:38:49.442Z,100183.97
2023-05-18T13:39:56.959Z,100177.84
2023-05-18T13:41:01.071Z,100174.44
2023-05-18T13:42:11.353Z,100175.13
2023-05-18T13:43:15.877Z,100173.31
2023-05-18T13:44:22.556Z,100172.28
2023-05-18T13:45:27.558Z,100185.84
2023-05-18T13:46:38.238Z,100182.81
2023-05-18T13:47:43.445Z,100175.78
2023-05-18T13:48:48.244Z,100172.28
2023-05-18T13:49:53.275Z,100172.38
2023-05-18T13:50:57.370Z,100182.16
2023-05-18T13:52:01.470Z,100168.75
2023-05-18T13:53:05.570Z,100173.22
2023-05-18T13:54:10.633Z,100177.50
2023-05-18T13:55:16.188Z,100175.41
2023-05-18T13:56:20.274Z,100171.63
2023-05-18T13:57:28.476Z,100172.56
2023-05-18T13:58:36.172Z,100172.56
2023-05-18T13:59:40.630Z,100162.88
2023-05-18T14:00:46.738Z,100172.00
2023-05-18T14:01:50.623Z,100170.84
2023-05-18T14:02:57.154Z,100168.19
2023-05-18T14:04:03.138Z,100161.16
2023-05-18T14:05:10.876Z,100172.16
2023-05-18T14:06:15.130Z,100167.22
2023-05-18T14:07:20.597Z,100168.28
2023-05-18T14:08:24.427Z,100173.94
2023-05-18T14:09:30.228Z,100170.78
2023-05-18T14:10:34.031Z,100172.81
2023-05-18T14:11:42.883Z,100168.06
2023-05-18T14:12:48.253Z,100166.63
2023-05-18T14:13:53.183Z,100163.97
2023-05-18T14:14:57.216Z,100168.13
2023-05-18T14:16:01.755Z,100166.53
2023-05-18T14:17:07.163Z,100162.25
2023-05-18T14:18:12.959Z,100165.91
2023-05-18T14:19:16.735Z,100174.50
2023-05-18T14:20:21.039Z,100173.47